createdAt,value
2023-03-28T00:01:04.612Z,6.80
2023-03-28T00:03:35.672Z,6.10
2023-03-28T00:06:05.832Z,6.73
2023-03-28T00:08:32.897Z,6.77
2023-03-28T00:11:04.839Z,6.80
2023-03-28T00:13:31.960Z,6.90
2023-03-28T00:16:05.947Z,6.47
2023-03-28T00:18:37.705Z,6.10
2023-03-28T00:21:08.101Z,6.80
2023-03-28T00:23:35.975Z,6.80
2023-03-28T00:26:07.979Z,6.73
2023-03-28T00:28:35.739Z,6.80
2023-03-28T00:31:05.480Z,7.17
2023-03-28T00:33:32.715Z,7.50
2023-03-28T00:35:59.925Z,7.77
2023-03-28T00:38:27.830Z,6.93
2023-03-28T00:40:57.945Z,7.90
2023-03-28T00:43:39.748Z,7.10
2023-03-28T00:46:14.521Z,6.90
2023-03-28T00:48:49.807Z,6.73
2023-03-28T00:51:21.020Z,6.90
2023-03-28T00:53:49.938Z,6.53
2023-03-28T00:56:21.635Z,7.03
2023-03-28T00:58:50.426Z,7.10
2023-03-28T01:01:20.351Z,6.90
2023-03-28T01:06:21.650Z,7.00
2023-03-28T01:08:49.702Z,7.33
2023-03-28T01:11:17.747Z,7.23
2023-03-28T01:13:47.869Z,7.03
2023-03-28T01:16:16.093Z,7.27
2023-03-28T01:18:51.574Z,7.30
2023-03-28T01:21:53.963Z,7.57
2023-03-28T01:25:06.152Z,7.50
2023-03-28T01:27:39.135Z,7.23
2023-03-28T01:30:37.071Z,7.18
2023-03-28T01:33:34.881Z,6.57
2023-03-28T01:39:17.077Z,7.07
2023-03-28T01:41:53.370Z,7.20
2023-03-28T01:44:29.482Z,7.70
2023-03-28T01:47:01.580Z,9.17
2023-03-28T01:49:33.857Z,7.60
2023-03-28T01:52:08.477Z,7.77
2023-03-28T01:54:44.413Z,7.80
2023-03-28T01:57:15.716Z,8.10
2023-03-28T01:59:48.057Z,7.07
2023-03-28T02:02:25.928Z,7.63
2023-03-28T02:04:57.054Z,7.60
2023-03-28T02:07:25.634Z,8.10
2023-03-28T02:09:56.443Z,8.83
2023-03-28T02:12:29.201Z,7.57
2023-03-28T02:14:58.419Z,8.13
2023-03-28T02:17:29.177Z,8.80
2023-03-28T02:20:00.899Z,8.57
2023-03-28T02:22:35.184Z,8.67
2023-03-28T02:25:04.248Z,8.50
2023-03-28T02:27:34.229Z,9.77
2023-03-28T02:30:01.785Z,9.23
2023-03-28T02:32:34.034Z,9.17
2023-03-28T02:35:03.174Z,9.73
2023-03-28T02:37:41.203Z,9.47
2023-03-28T02:40:24.050Z,8.77
2023-03-28T02:43:10.849Z,11.00
2023-03-28T02:46:00.169Z,10.20
2023-03-28T02:48:42.809Z,11.00
2023-03-28T02:51:18.006Z,11.13
2023-03-28T02:53:52.860Z,10.43
2023-03-28T02:56:29.705Z,10.43
2023-03-28T02:59:02.235Z,10.03
2023-03-28T03:01:29.988Z,8.73
2023-03-28T03:03:58.280Z,10.33
2023-03-28T03:06:25.544Z,9.17
2023-03-28T03:08:52.511Z,9.47
2023-03-28T03:11:19.911Z,9.27
2023-03-28T03:13:48.150Z,8.70
2023-03-28T03:16:15.090Z,9.70
2023-03-28T03:18:41.930Z,9.17
2023-03-28T03:21:08.999Z,10.57
2023-03-28T03:23:36.695Z,11.03
2023-03-28T03:26:04.117Z,12.07
2023-03-28T03:28:32.118Z,10.67
2023-03-28T03:31:01.230Z,12.20
2023-03-28T03:33:28.445Z,12.93
2023-03-28T03:35:56.138Z,12.47
2023-03-28T03:38:23.200Z,13.17
2023-03-28T03:40:50.208Z,12.60
2023-03-28T03:43:17.249Z,11.97
2023-03-28T03:45:46.077Z,12.07
2023-03-28T03:48:14.502Z,12.43
2023-03-28T03:50:41.363Z,13.23
2023-03-28T03:53:08.349Z,11.63
2023-03-28T03:55:38.190Z,12.17
2023-03-28T03:58:05.038Z,12.50
2023-03-28T04:00:31.897Z,10.70
2023-03-28T04:03:01.854Z,12.13
2023-03-28T04:05:30.144Z,12.13
2023-03-28T04:07:59.318Z,11.30
2023-03-28T04:10:26.223Z,10.93
2023-03-28T04:12:53.176Z,10.90
2023-03-28T04:15:20.048Z,12.23
2023-03-28T04:17:50.337Z,10.60
2023-03-28T04:20:17.588Z,12.73
2023-03-28T04:22:46.415Z,11.10
2023-03-28T04:25:14.236Z,11.27
2023-03-28T04:27:46.324Z,11.50
2023-03-28T04:30:13.853Z,10.63
2023-03-28T04:32:41.562Z,11.93
2023-03-28T04:35:08.735Z,11.70
2023-03-28T04:37:37.838Z,11.27
2023-03-28T04:40:16.396Z,11.77
2023-03-28T04:42:43.667Z,11.53
2023-03-28T04:45:11.195Z,12.17
2023-03-28T04:47:40.144Z,12.37
2023-03-28T04:50:08.978Z,13.23
2023-03-28T04:52:36.735Z,15.97
2023-03-28T04:55:04.749Z,16.73
2023-03-28T04:57:33.204Z,16.13
2023-03-28T05:00:00.134Z,15.90
2023-03-28T05:02:27.218Z,14.27
2023-03-28T05:04:54.122Z,13.90
2023-03-28T05:07:21.282Z,12.73
2023-03-28T05:09:48.230Z,13.30
2023-03-28T05:12:15.100Z,12.67
2023-03-28T05:14:43.454Z,12.60
2023-03-28T05:17:10.653Z,12.27
2023-03-28T05:19:37.649Z,11.83
2023-03-28T05:22:04.484Z,12.90
2023-03-28T05:24:31.773Z,11.40
2023-03-28T05:26:58.820Z,11.33
2023-03-28T05:29:25.848Z,11.30
2023-03-28T05:31:54.150Z,10.13
2023-03-28T05:34:21.499Z,9.60
2023-03-28T05:36:48.514Z,9.03
2023-03-28T05:39:15.917Z,8.83
2023-03-28T05:41:42.826Z,8.50
2023-03-28T05:44:09.774Z,9.10
2023-03-28T05:46:36.625Z,9.13
2023-03-28T05:49:04.929Z,8.27
2023-03-28T05:51:31.864Z,8.80
2023-03-28T05:53:58.693Z,8.63
2023-03-28T05:56:26.200Z,8.47
2023-03-28T05:58:53.007Z,8.27
2023-03-28T06:01:23.379Z,8.00
2023-03-28T06:03:50.432Z,8.37
2023-03-28T06:06:20.411Z,7.73
2023-03-28T06:08:47.309Z,8.00
2023-03-28T06:11:15.058Z,8.37
2023-03-28T06:13:41.934Z,7.60
2023-03-28T06:16:09.390Z,7.23
2023-03-28T06:18:39.055Z,7.57
2023-03-28T06:21:06.419Z,8.00
2023-03-28T06:23:34.832Z,8.10
2023-03-28T06:26:02.550Z,7.63
2023-03-28T06:28:29.406Z,9.23
2023-03-28T06:30:56.492Z,7.53
2023-03-28T06:33:23.535Z,7.77
2023-03-28T06:35:51.651Z,7.20
2023-03-28T06:38:18.673Z,7.60
2023-03-28T06:40:47.201Z,5.87
2023-03-28T06:43:14.294Z,6.00
2023-03-28T06:45:41.504Z,6.37
2023-03-28T06:48:08.419Z,6.73
2023-03-28T06:50:35.298Z,6.60
2023-03-28T06:53:02.136Z,6.23
2023-03-28T06:55:29.169Z,6.07
2023-03-28T06:57:57.403Z,6.87
2023-03-28T07:00:24.333Z,7.40
2023-03-28T07:02:51.407Z,6.07
2023-03-28T07:05:18.384Z,5.97
2023-03-28T07:07:45.285Z,6.27
2023-03-28T07:10:12.132Z,7.23
2023-03-28T07:12:39.239Z,7.03
2023-03-28T07:15:08.469Z,6.80
2023-03-28T07:17:35.404Z,6.70
2023-03-28T07:20:02.414Z,5.23
2023-03-28T07:22:29.266Z,5.30
2023-03-28T07:24:56.295Z,5.07
2023-03-28T07:27:24.864Z,5.70
2023-03-28T07:29:51.903Z,5.97
2023-03-28T07:32:20.452Z,6.13
2023-03-28T07:34:47.258Z,5.57
2023-03-28T07:37:15.198Z,5.33
2023-03-28T07:39:43.856Z,5.10
2023-03-28T07:42:11.603Z,6.00
2023-03-28T07:44:40.311Z,4.63
2023-03-28T07:47:10.092Z,5.00
2023-03-28T07:49:39.649Z,4.50
2023-03-28T07:52:06.805Z,4.87
2023-03-28T07:54:34.546Z,4.73
2023-03-28T07:57:01.448Z,4.97
2023-03-28T07:59:28.307Z,5.10
2023-03-28T08:01:55.225Z,4.30
2023-03-28T08:04:22.129Z,4.27
2023-03-28T08:06:52.357Z,4.03
2023-03-28T08:09:19.718Z,4.30
2023-03-28T08:11:48.095Z,5.00
2023-03-28T08:14:18.026Z,4.70
2023-03-28T08:16:45.869Z,4.53
2023-03-28T08:19:13.274Z,4.50
2023-03-28T08:21:40.288Z,4.70
2023-03-28T08:24:12.901Z,4.53
2023-03-28T08:26:41.005Z,4.70
2023-03-28T08:29:07.939Z,4.45
2023-03-28T08:31:34.879Z,4.75
2023-03-28T08:34:01.811Z,3.83
2023-03-28T08:36:29.072Z,5.15
2023-03-28T08:39:00.576Z,4.38
2023-03-28T08:41:47.300Z,3.53
2023-03-28T08:44:28.610Z,4.00
2023-03-28T08:46:59.593Z,4.75
2023-03-28T08:49:26.839Z,4.25
2023-03-28T08:51:58.516Z,4.38
2023-03-28T08:54:31.659Z,4.93
2023-03-28T08:57:04.253Z,4.70
2023-03-28T08:59:39.964Z,4.30
2023-03-28T09:02:16.186Z,4.35
2023-03-28T09:04:43.284Z,3.75
2023-03-28T09:07:22.471Z,3.47
2023-03-28T09:10:00.356Z,4.38
2023-03-28T09:12:42.567Z,3.83
2023-03-28T09:15:35.241Z,4.93
2023-03-28T09:18:22.483Z,3.67
2023-03-28T09:20:54.643Z,4.00
2023-03-28T09:23:38.101Z,3.47
2023-03-28T09:26:10.872Z,4.28
2023-03-28T09:28:48.875Z,4.43
2023-03-28T09:31:19.793Z,4.10
2023-03-28T09:33:48.725Z,3.50
2023-03-28T09:36:21.626Z,4.03
2023-03-28T09:38:52.310Z,4.43
2023-03-28T09:41:26.017Z,3.22
2023-03-28T09:43:59.221Z,3.80
2023-03-28T09:46:32.033Z,3.90
2023-03-28T09:48:59.432Z,4.57
2023-03-28T09:51:26.603Z,4.38
2023-03-28T09:53:53.425Z,3.30
2023-03-28T09:56:26.657Z,4.40
2023-03-28T09:58:56.455Z,4.32
2023-03-28T10:01:27.408Z,3.53
2023-03-28T10:03:56.693Z,4.13
2023-03-28T10:06:26.753Z,4.40
2023-03-28T10:09:08.465Z,4.40
2023-03-28T10:11:47.190Z,3.87
2023-03-28T10:14:32.414Z,4.35
2023-03-28T10:17:04.783Z,4.10
2023-03-28T10:19:35.491Z,3.83
2023-03-28T10:22:06.397Z,4.30
2023-03-28T10:24:34.165Z,3.63
2023-03-28T10:27:08.762Z,3.83
2023-03-28T10:29:38.155Z,4.32
2023-03-28T10:32:06.501Z,4.80
2023-03-28T10:34:34.959Z,3.22
2023-03-28T10:37:01.874Z,4.13
2023-03-28T10:39:30.705Z,4.05
2023-03-28T10:41:59.266Z,3.97
2023-03-28T10:44:28.791Z,3.97
2023-03-28T10:46:59.467Z,3.45
2023-03-28T10:49:28.926Z,3.38
2023-03-28T10:51:57.070Z,3.75
2023-03-28T10:54:41.589Z,3.78
2023-03-28T10:57:16.361Z,3.30
2023-03-28T10:59:49.787Z,3.60
2023-03-28T11:02:36.073Z,3.50
2023-03-28T11:05:17.878Z,3.53
2023-03-28T11:07:51.493Z,3.00
2023-03-28T11:10:23.656Z,3.72
2023-03-28T11:13:04.822Z,4.00
2023-03-28T11:15:37.174Z,3.05
2023-03-28T11:18:21.631Z,3.47
2023-03-28T11:20:56.486Z,2.28
2023-03-28T11:23:39.535Z,3.20
2023-03-28T11:26:13.250Z,3.22
2023-03-28T11:28:59.687Z,2.85
2023-03-28T11:31:33.703Z,3.25
2023-03-28T11:34:06.663Z,3.15
2023-03-28T11:36:40.180Z,2.87
2023-03-28T11:39:15.325Z,2.67
2023-03-28T11:41:44.628Z,2.83
2023-03-28T11:44:19.320Z,2.65
2023-03-28T11:46:51.436Z,3.00
2023-03-28T11:49:23.488Z,2.72
2023-03-28T11:51:59.549Z,3.83
2023-03-28T11:54:34.613Z,3.65
2023-03-28T11:57:06.883Z,3.10
2023-03-28T11:59:44.303Z,3.38
2023-03-28T12:02:27.392Z,3.55
2023-03-28T12:05:00.591Z,3.78
2023-03-28T12:07:38.255Z,3.05
2023-03-28T12:10:14.887Z,3.53
2023-03-28T12:12:51.770Z,3.00
2023-03-28T12:15:21.398Z,2.95
2023-03-28T12:17:52.427Z,2.80
2023-03-28T12:20:30.152Z,3.47
2023-03-28T12:23:03.876Z,3.53
2023-03-28T12:25:35.421Z,3.38
2023-03-28T12:28:12.805Z,3.15
2023-03-28T12:30:45.648Z,2.92
2023-03-28T12:33:20.414Z,3.53
2023-03-28T12:35:55.545Z,3.58
2023-03-28T12:38:32.326Z,3.10
2023-03-28T12:41:02.064Z,3.60
2023-03-28T12:43:41.992Z,3.00
2023-03-28T12:46:13.023Z,3.13
2023-03-28T12:48:44.665Z,2.72
2023-03-28T12:51:18.088Z,2.92
2023-03-28T12:53:47.446Z,3.35
2023-03-28T12:56:15.672Z,3.13
2023-03-28T12:58:46.233Z,3.35
2023-03-28T13:01:27.931Z,3.40
2023-03-28T13:04:03.180Z,2.90
2023-03-28T13:06:42.578Z,3.10
2023-03-28T13:09:22.909Z,3.95
2023-03-28T13:11:56.612Z,3.60
2023-03-28T13:14:34.362Z,3.38
2023-03-28T13:17:02.740Z,4.18
2023-03-28T13:19:46.884Z,3.60
2023-03-28T13:25:34.561Z,3.33
2023-03-28T13:33:22.020Z,2.75
2023-03-28T13:36:10.641Z,3.88
2023-03-28T13:38:47.107Z,4.05
2023-03-28T13:41:32.620Z,3.53
2023-03-28T13:44:01.932Z,3.72
2023-03-28T13:46:32.726Z,3.95
2023-03-28T13:49:06.598Z,3.70
2023-03-28T13:54:05.729Z,3.97
2023-03-28T13:56:34.538Z,9.75
2023-03-28T13:59:07.052Z,4.70
2023-03-28T14:01:35.868Z,3.60
2023-03-28T14:04:09.964Z,3.63
2023-03-28T14:06:41.195Z,10.48
2023-03-28T14:09:18.955Z,3.42
2023-03-28T14:11:46.956Z,3.00
2023-03-28T14:14:19.492Z,4.18
2023-03-28T14:16:47.058Z,3.75
2023-03-28T14:19:20.084Z,3.58
2023-03-28T14:21:48.386Z,3.20
2023-03-28T14:24:21.841Z,4.25
2023-03-28T14:26:50.058Z,3.42
2023-03-28T14:29:19.774Z,4.38
2023-03-28T14:31:48.690Z,3.70
2023-03-28T14:34:24.453Z,3.88
2023-03-28T14:36:59.034Z,3.60
2023-03-28T14:39:28.604Z,3.83
2023-03-28T14:41:57.470Z,3.83
2023-03-28T14:44:25.191Z,3.38
2023-03-28T14:46:54.231Z,3.80
2023-03-28T14:49:25.051Z,4.28
2023-03-28T14:51:57.617Z,4.10
2023-03-28T14:54:32.624Z,4.47
2023-03-28T14:57:01.090Z,4.25
2023-03-28T14:59:36.870Z,4.18
2023-03-28T15:02:05.811Z,4.40
2023-03-28T15:04:33.606Z,4.68
2023-03-28T15:07:00.561Z,4.10
2023-03-28T15:09:35.255Z,4.07
2023-03-28T15:12:06.812Z,3.83
2023-03-28T15:14:39.916Z,3.80
2023-03-28T15:17:07.166Z,3.78
2023-03-28T15:19:37.672Z,3.45
2023-03-28T15:22:09.635Z,4.35
2023-03-28T15:24:39.124Z,3.75
2023-03-28T15:27:12.386Z,3.88
2023-03-28T15:29:39.786Z,4.03
2023-03-28T15:32:13.026Z,3.40
2023-03-28T15:34:45.948Z,3.17
2023-03-28T15:37:16.834Z,3.93
2023-03-28T15:39:49.457Z,4.30
2023-03-28T15:42:46.257Z,3.85
2023-03-28T15:45:42.205Z,4.13
2023-03-28T15:48:17.091Z,3.90
2023-03-28T15:50:50.425Z,2.90
2023-03-28T15:53:19.144Z,3.38
2023-03-28T15:55:49.764Z,3.03
2023-03-28T15:58:19.250Z,3.15
2023-03-28T16:00:47.859Z,3.63
2023-03-28T16:03:34.452Z,4.28
2023-03-28T16:06:31.716Z,3.92
2023-03-28T16:09:14.762Z,3.63
2023-03-28T16:11:44.562Z,3.67
2023-03-28T16:14:14.754Z,4.40
2023-03-28T16:16:41.965Z,4.22
2023-03-28T16:19:13.726Z,4.47
2023-03-28T16:21:41.027Z,5.10
2023-03-28T16:24:08.049Z,4.78
2023-03-28T16:26:34.987Z,4.72
2023-03-28T16:29:04.608Z,4.93
2023-03-28T16:31:31.608Z,4.88
2023-03-28T16:34:00.195Z,5.10
2023-03-28T16:36:27.090Z,4.60
2023-03-28T16:38:54.499Z,4.35
2023-03-28T16:41:21.851Z,4.18
2023-03-28T16:43:49.450Z,4.07
2023-03-28T16:46:17.847Z,3.97
2023-03-28T16:48:44.733Z,4.38
2023-03-28T16:51:11.670Z,4.80
2023-03-28T16:53:39.928Z,4.68
2023-03-28T16:56:12.075Z,4.50
2023-03-28T16:58:39.634Z,4.78
2023-03-28T17:01:08.568Z,4.88
2023-03-28T17:03:39.306Z,4.15
2023-03-28T17:06:08.589Z,4.07
2023-03-28T17:08:35.559Z,4.07
2023-03-28T17:11:02.570Z,4.70
2023-03-28T17:13:29.524Z,4.32
2023-03-28T17:15:56.392Z,4.72
2023-03-28T17:18:24.452Z,4.32
2023-03-28T17:21:01.886Z,4.80
2023-03-28T17:23:30.161Z,4.22
2023-03-28T17:25:58.443Z,4.33
2023-03-28T17:28:26.547Z,4.40
2023-03-28T17:30:54.487Z,3.83
2023-03-28T17:33:22.515Z,3.83
2023-03-28T17:35:49.947Z,5.00
2023-03-28T17:38:18.483Z,5.57
2023-03-28T17:40:49.672Z,5.55
2023-03-28T17:43:16.703Z,5.55
2023-03-28T17:45:44.274Z,4.45
2023-03-28T17:48:12.600Z,4.28
2023-03-28T17:50:39.651Z,4.60
2023-03-28T17:53:06.932Z,3.92
2023-03-28T17:55:35.631Z,4.38
2023-03-28T17:58:02.827Z,4.65
2023-03-28T18:00:31.493Z,4.60
2023-03-28T18:02:58.669Z,4.43
2023-03-28T18:05:26.025Z,4.73
2023-03-28T18:07:53.713Z,4.18
2023-03-28T18:10:20.691Z,4.57
2023-03-28T18:12:50.088Z,4.47
2023-03-28T18:15:17.558Z,4.18
2023-03-28T18:17:45.374Z,4.15
2023-03-28T18:20:12.821Z,3.22
2023-03-28T18:22:42.343Z,3.45
2023-03-28T18:25:09.866Z,4.07
2023-03-28T18:27:36.883Z,3.93
2023-03-28T18:30:08.418Z,4.07
2023-03-28T18:32:36.388Z,3.75
2023-03-28T18:35:07.279Z,3.83
2023-03-28T18:37:35.377Z,3.77
2023-03-28T18:40:05.198Z,4.07
2023-03-28T18:42:32.493Z,4.68
2023-03-28T18:44:59.669Z,3.65
2023-03-28T18:47:28.299Z,3.73
2023-03-28T18:49:55.208Z,3.95
2023-03-28T18:52:22.092Z,4.70
2023-03-28T18:54:49.326Z,4.55
2023-03-28T18:57:17.001Z,4.88
2023-03-28T18:59:43.992Z,4.57
2023-03-28T19:02:13.403Z,4.18
2023-03-28T19:04:41.968Z,3.80
2023-03-28T19:07:10.095Z,4.07
2023-03-28T19:09:36.973Z,4.95
2023-03-28T19:12:04.013Z,4.47
2023-03-28T19:14:31.434Z,4.32
2023-03-28T19:16:58.366Z,4.38
2023-03-28T19:19:25.948Z,4.45
2023-03-28T19:21:55.204Z,5.93
2023-03-28T19:24:22.367Z,5.40
2023-03-28T19:26:49.752Z,5.38
2023-03-28T19:29:17.357Z,5.30
2023-03-28T19:31:44.255Z,5.68
2023-03-28T19:34:15.663Z,6.43
2023-03-28T19:36:43.210Z,6.10
2023-03-28T19:39:11.727Z,6.38
2023-03-28T19:41:38.738Z,6.45
2023-03-28T19:44:06.357Z,6.82
2023-03-28T19:46:36.208Z,6.37
2023-03-28T19:49:08.629Z,6.63
2023-03-28T19:51:35.889Z,6.72
2023-03-28T19:54:02.906Z,7.25
2023-03-28T19:56:31.892Z,6.93
2023-03-28T19:58:58.818Z,6.65
2023-03-28T20:01:25.803Z,7.15
2023-03-28T20:03:53.430Z,7.68
2023-03-28T20:06:22.606Z,6.15
2023-03-28T20:08:51.268Z,6.40
2023-03-28T20:11:18.559Z,6.00
2023-03-28T20:13:47.013Z,6.68
2023-03-28T20:16:14.918Z,6.77
2023-03-28T20:18:42.144Z,6.43
2023-03-28T20:21:11.544Z,6.88
2023-03-28T20:23:38.726Z,6.20
2023-03-28T20:26:14.840Z,5.82
2023-03-28T20:28:42.163Z,5.28
2023-03-28T20:31:12.890Z,5.63
2023-03-28T20:33:40.329Z,4.95
2023-03-28T20:36:08.039Z,5.43
2023-03-28T20:38:35.066Z,5.18
2023-03-28T20:41:02.608Z,5.28
2023-03-28T20:43:29.883Z,5.43
2023-03-28T20:46:01.523Z,5.88
2023-03-28T20:48:37.007Z,5.53
2023-03-28T20:51:05.887Z,4.05
2023-03-28T20:53:33.578Z,5.72
2023-03-28T20:56:03.461Z,4.72
2023-03-28T20:58:31.929Z,4.70
2023-03-28T21:01:00.868Z,4.60
2023-03-28T21:03:46.591Z,5.03
2023-03-28T21:06:15.631Z,4.47
2023-03-28T21:08:45.922Z,4.35
2023-03-28T21:11:14.182Z,4.38
2023-03-28T21:13:41.489Z,4.55
2023-03-28T21:16:09.673Z,4.78
2023-03-28T21:18:38.271Z,4.70
2023-03-28T21:21:07.510Z,4.45
2023-03-28T21:23:34.882Z,5.00
2023-03-28T21:26:01.809Z,4.65
2023-03-28T21:28:29.647Z,4.22
2023-03-28T21:30:58.205Z,4.82
2023-03-28T21:33:25.161Z,4.80
2023-03-28T21:35:53.609Z,5.20
2023-03-28T21:38:20.798Z,4.75
2023-03-28T21:40:48.880Z,5.05
2023-03-28T21:43:16.595Z,4.00
2023-03-28T21:45:44.877Z,5.05
2023-03-28T21:48:11.921Z,5.30
2023-03-28T21:50:41.231Z,4.53
2023-03-28T21:53:10.825Z,4.47
2023-03-28T21:55:38.033Z,5.00
2023-03-28T21:58:05.363Z,4.93
2023-03-28T22:00:32.338Z,4.88
2023-03-28T22:02:59.360Z,5.15
2023-03-28T22:05:29.828Z,5.38
2023-03-28T22:07:57.461Z,5.15
2023-03-28T22:10:26.816Z,4.80
2023-03-28T22:12:54.032Z,5.13
2023-03-28T22:15:20.980Z,5.25
2023-03-28T22:17:47.907Z,5.38
2023-03-28T22:20:14.933Z,4.97
2023-03-28T22:22:45.587Z,5.43
2023-03-28T22:25:13.511Z,5.32
2023-03-28T22:27:43.279Z,5.72
2023-03-28T22:30:11.927Z,5.57
2023-03-28T22:32:39.810Z,6.15
2023-03-28T22:35:09.062Z,5.50
2023-03-28T22:37:36.044Z,5.38
2023-03-28T22:40:03.917Z,5.68
2023-03-28T22:42:31.050Z,6.55
2023-03-28T22:45:01.528Z,6.78
2023-03-28T22:47:30.404Z,6.40
2023-03-28T22:49:58.227Z,5.85
2023-03-28T22:52:26.307Z,5.43
2023-03-28T22:54:54.646Z,5.80
2023-03-28T22:57:21.709Z,6.15
2023-03-28T22:59:53.009Z,6.10
2023-03-28T23:02:21.807Z,6.03
2023-03-28T23:04:48.685Z,5.93
2023-03-28T23:07:16.761Z,6.15
2023-03-28T23:09:44.273Z,5.75
2023-03-28T23:12:11.268Z,5.45
2023-03-28T23:14:39.665Z,6.28
2023-03-28T23:17:06.713Z,6.13
2023-03-28T23:19:35.276Z,6.63
2023-03-28T23:22:02.529Z,6.82
2023-03-28T23:24:29.444Z,5.88
2023-03-28T23:26:56.616Z,6.55
2023-03-28T23:29:23.747Z,6.18
2023-03-28T23:31:51.165Z,6.60
2023-03-28T23:34:18.485Z,6.50
2023-03-28T23:36:47.327Z,7.13
2023-03-28T23:39:14.726Z,7.40
2023-03-28T23:41:42.021Z,7.03
2023-03-28T23:44:10.316Z,7.18
2023-03-28T23:46:37.694Z,6.63
2023-03-28T23:49:04.765Z,6.57
2023-03-28T23:51:31.715Z,6.68
2023-03-28T23:54:00.782Z,6.38
2023-03-28T23:56:27.874Z,7.07
2023-03-28T23:58:54.756Z,6.25
